Time;durP1;ratioP1;P1;durP2;ratioP2;P2;SDS_P1;SDS_P2;PMS_P1;PMS_P2;Temp;Humidity;BMP_temperature;BMP_pressure;BME280_temperature;BME280_humidity;BME280_pressure;Samples;Min_cycle;Max_cycle;Signal;HPM_P1;HPM_P2
2023/11/04 00:01:55;;;;;;;1999.90;999.90;;;8.60;99.90;;;;;;5053560;28;20278;-76
2023/11/04 00:04:21;;;;;;;1999.90;999.90;;;8.60;99.90;;;;;;5052909;28;20309;-68
2023/11/04 00:06:47;;;;;;;1999.90;999.90;;;8.60;99.90;;;;;;5047322;28;20029;-68
2023/11/04 00:09:13;;;;;;;1999.90;999.90;;;8.60;99.90;;;;;;5047022;28;20036;-68
2023/11/04 00:11:38;;;;;;;1999.90;999.90;;;8.60;99.90;;;;;;5050827;28;20037;-80
2023/11/04 00:14:04;;;;;;;1999.90;999.90;;;8.60;99.90;;;;;;5052372;28;20021;-68
2023/11/04 00:16:30;;;;;;;1999.90;999.90;;;8.60;99.90;;;;;;5049356;28;20436;-68
2023/11/04 00:18:56;;;;;;;1999.90;999.90;;;8.70;99.90;;;;;;5048296;28;20029;-68
2023/11/04 00:21:22;;;;;;;1999.90;999.90;;;8.70;99.90;;;;;;5040824;28;20447;-68
2023/11/04 00:23:48;;;;;;;1999.90;999.90;;;8.70;99.90;;;;;;5041660;28;20087;-68
2023/11/04 00:26:14;;;;;;;1999.90;999.90;;;8.70;99.90;;;;;;5051163;28;20032;-68
2023/11/04 00:28:40;;;;;;;1999.90;999.90;;;8.70;99.90;;;;;;5042113;28;20025;-70
2023/11/04 00:31:07;;;;;;;1999.90;999.90;;;8.70;99.90;;;;;;5044127;28;20056;-68
2023/11/04 00:33:33;;;;;;;;;;;8.70;99.90;;;;;;5036330;28;20033;-68
2023/11/04 00:35:59;;;;;;;1999.90;999.90;;;8.70;99.90;;;;;;5049570;28;19919;-68
2023/11/04 00:38:25;;;;;;;1999.90;999.90;;;8.70;99.90;;;;;;5041684;28;20055;-68
2023/11/04 00:40:51;;;;;;;1999.90;999.90;;;8.70;99.90;;;;;;5043796;28;20065;-68
2023/11/04 00:43:17;;;;;;;1999.90;999.90;;;8.70;99.90;;;;;;5040530;28;20079;-68
2023/11/04 00:45:42;;;;;;;1999.90;999.90;;;8.70;99.90;;;;;;5046801;28;20463;-68
2023/11/04 00:48:08;;;;;;;1999.90;999.90;;;8.80;99.90;;;;;;5038018;28;20084;-67
2023/11/04 00:50:36;;;;;;;1999.90;999.90;;;8.80;99.90;;;;;;5050847;28;20045;-67
2023/11/04 00:53:02;;;;;;;1999.90;999.90;;;8.80;99.90;;;;;;5039443;28;20025;-67
2023/11/04 00:55:28;;;;;;;1999.90;999.90;;;8.80;99.90;;;;;;5046814;28;20099;-68
2023/11/04 00:57:55;;;;;;;1999.90;999.90;;;8.80;99.90;;;;;;5058100;28;20097;-68
2023/11/04 01:00:26;;;;;;;;;;;8.80;99.90;;;;;;5037261;28;20088;-68
2023/11/04 01:02:55;;;;;;;1999.90;999.90;;;8.80;99.90;;;;;;5048223;28;19912;-69
2023/11/04 01:05:22;;;;;;;1999.90;999.90;;;8.80;99.90;;;;;;5048588;28;20573;-68
2023/11/04 01:07:49;;;;;;;1999.90;999.90;;;8.90;99.90;;;;;;5038078;28;20036;-68
2023/11/04 01:10:15;;;;;;;;;;;8.90;99.90;;;;;;5042098;28;20424;-68
2023/11/04 01:12:41;;;;;;;1999.90;999.90;;;8.90;99.90;;;;;;5045405;28;20307;-68
2023/11/04 01:15:07;;;;;;;1999.90;999.90;;;8.90;99.90;;;;;;5046844;28;20038;-69
2023/11/04 01:17:33;;;;;;;1999.90;999.90;;;8.90;99.90;;;;;;5047348;28;20037;-75
2023/11/04 01:19:59;;;;;;;1999.90;999.90;;;8.90;99.90;;;;;;5047250;28;20120;-68
2023/11/04 01:22:24;;;;;;;1999.90;999.90;;;8.90;99.90;;;;;;5050748;28;20029;-68
2023/11/04 01:24:50;;;;;;;1999.90;999.90;;;8.90;99.90;;;;;;5065336;28;20032;-68
2023/11/04 01:27:16;;;;;;;1999.90;999.90;;;8.90;99.90;;;;;;5055630;28;20420;-68
2023/11/04 01:29:42;;;;;;;1999.90;999.90;;;8.90;99.90;;;;;;5053836;28;20438;-69
2023/11/04 01:32:07;;;;;;;1999.90;999.90;;;8.90;99.90;;;;;;5052718;28;20021;-68
2023/11/04 01:34:33;;;;;;;1999.90;999.90;;;8.90;99.90;;;;;;5053749;28;20044;-68
2023/11/04 01:36:59;;;;;;;1999.90;999.90;;;9.00;99.90;;;;;;5053065;28;20032;-68
2023/11/04 01:39:24;;;;;;;1999.90;999.90;;;9.00;99.90;;;;;;5051826;28;20035;-68
2023/11/04 01:41:50;;;;;;;1999.90;999.90;;;9.00;99.90;;;;;;5053543;28;20100;-68
2023/11/04 01:44:16;;;;;;;1999.90;999.90;;;9.10;99.90;;;;;;5037001;28;20121;-73
2023/11/04 01:46:42;;;;;;;1999.90;999.90;;;9.10;99.90;;;;;;5043732;28;20075;-69
2023/11/04 01:49:08;;;;;;;1999.90;999.90;;;9.10;99.90;;;;;;5047669;28;20039;-68
2023/11/04 01:51:35;;;;;;;1999.90;999.90;;;9.10;99.90;;;;;;5058468;28;20462;-68
2023/11/04 01:54:01;;;;;;;1999.90;999.90;;;9.10;99.90;;;;;;5059095;28;20029;-69
2023/11/04 01:56:34;;;;;;;1999.90;999.90;;;9.20;99.90;;;;;;5038585;28;20090;-68
2023/11/04 01:59:02;;;;;;;1999.90;999.90;;;9.20;99.90;;;;;;5054896;28;20323;-69
2023/11/04 02:01:28;;;;;;;1999.90;999.90;;;9.20;99.90;;;;;;5042681;28;20033;-76
2023/11/04 02:03:54;;;;;;;1999.90;999.90;;;9.20;99.90;;;;;;5044721;28;20561;-69
2023/11/04 02:06:20;;;;;;;1999.90;999.90;;;9.20;99.90;;;;;;5043793;28;20116;-68
2023/11/04 02:08:46;;;;;;;1999.90;999.90;;;9.20;99.90;;;;;;5040618;28;20022;-68
2023/11/04 02:11:12;;;;;;;1999.90;999.90;;;9.30;99.90;;;;;;5046099;28;20362;-68
2023/11/04 02:13:38;;;;;;;1999.90;999.90;;;9.30;99.90;;;;;;5048450;28;20111;-68
2023/11/04 02:16:05;;;;;;;1999.90;999.90;;;9.30;99.90;;;;;;5041483;28;20025;-69
2023/11/04 02:18:31;;;;;;;;;;;9.30;99.90;;;;;;5050742;28;20109;-68
2023/11/04 02:21:00;;;;;;;1999.90;999.90;;;9.30;99.90;;;;;;5048079;28;20015;-68
2023/11/04 02:23:26;;;;;;;1999.90;999.90;;;9.30;99.90;;;;;;5053549;28;20029;-68
2023/11/04 02:25:53;;;;;;;1999.90;999.90;;;9.40;99.90;;;;;;5045406;28;20438;-69
2023/11/04 02:28:19;;;;;;;1999.90;999.90;;;9.40;99.90;;;;;;5056344;28;20044;-69
2023/11/04 02:30:45;;;;;;;1999.90;999.90;;;9.40;99.90;;;;;;5051007;28;20017;-68
2023/11/04 02:33:11;;;;;;;1999.90;999.90;;;9.40;99.90;;;;;;5046498;28;20029;-69
2023/11/04 02:35:37;;;;;;;1999.90;999.90;;;9.40;99.90;;;;;;5045546;28;20025;-75
2023/11/04 02:38:02;;;;;;;1999.90;999.90;;;9.40;99.90;;;;;;5041799;28;20024;-69
2023/11/04 02:40:29;;;;;;;1999.90;999.90;;;9.40;99.90;;;;;;5048728;28;20021;-68
2023/11/04 02:42:55;;;;;;;1999.90;999.90;;;9.40;99.90;;;;;;5049390;28;20017;-69
2023/11/04 02:45:21;;;;;;;1999.90;999.90;;;9.40;99.90;;;;;;5051989;28;20036;-69
2023/11/04 02:47:47;;;;;;;1999.90;999.90;;;9.40;99.90;;;;;;5047268;28;20303;-69
2023/11/04 02:50:13;;;;;;;1999.90;999.90;;;9.40;99.90;;;;;;5041937;28;20041;-68
2023/11/04 02:52:42;;;;;;;1999.90;999.90;;;9.30;99.90;;;;;;5039012;28;20025;-75
2023/11/04 02:55:08;;;;;;;1999.90;999.90;;;9.40;99.90;;;;;;5049829;28;20025;-75
2023/11/04 02:57:34;;;;;;;1999.90;999.90;;;9.40;99.90;;;;;;5043826;28;20037;-69
2023/11/04 03:00:01;;;;;;;1999.90;999.90;;;9.40;99.90;;;;;;5048010;28;20056;-69
2023/11/04 03:02:27;;;;;;;1999.90;999.90;;;9.40;99.90;;;;;;5048453;28;20064;-73
2023/11/04 03:04:55;;;;;;;1999.90;999.90;;;9.40;99.90;;;;;;5039298;28;20096;-69
2023/11/04 03:07:21;;;;;;;1999.90;999.90;;;9.40;99.90;;;;;;5045893;28;20060;-69
2023/11/04 03:09:47;;;;;;;1999.90;999.90;;;9.40;99.90;;;;;;5036665;28;20030;-69
2023/11/04 03:12:12;;;;;;;1999.90;999.90;;;9.40;99.90;;;;;;5035463;28;20109;-69
2023/11/04 03:14:42;;;;;;;1999.90;999.90;;;9.40;99.90;;;;;;5045217;28;20030;-69
2023/11/04 03:17:07;;;;;;;1999.90;999.90;;;9.40;99.90;;;;;;5038456;28;20056;-75
2023/11/04 03:19:33;;;;;;;1999.90;999.90;;;9.40;99.90;;;;;;5056501;28;20065;-69
2023/11/04 03:21:59;;;;;;;1999.90;999.90;;;9.40;99.90;;;;;;5067430;28;20032;-69
2023/11/04 03:24:24;;;;;;;1999.90;999.90;;;9.40;99.90;;;;;;5052063;28;20032;-69
2023/11/04 03:26:51;;;;;;;1999.90;999.90;;;9.40;99.90;;;;;;5065989;28;20411;-70
2023/11/04 03:29:17;;;;;;;1999.90;999.90;;;9.40;99.90;;;;;;5048298;28;20036;-68
2023/11/04 03:31:43;;;;;;;1999.90;999.90;;;9.40;99.90;;;;;;5046162;28;20029;-69
2023/11/04 03:34:09;;;;;;;1999.90;999.90;;;9.40;99.90;;;;;;5042436;28;20017;-69
2023/11/04 03:36:35;;;;;;;1999.90;999.90;;;9.40;99.90;;;;;;5042566;28;20359;-68
2023/11/04 03:39:01;;;;;;;1999.90;999.90;;;9.50;99.90;;;;;;5053806;28;20036;-69
2023/11/04 03:41:27;;;;;;;1999.90;999.90;;;9.50;99.90;;;;;;5052798;28;20025;-68
2023/11/04 03:43:52;;;;;;;1999.90;999.90;;;9.50;99.90;;;;;;5046380;28;20029;-69
2023/11/04 03:46:19;;;;;;;1999.90;999.90;;;9.50;99.90;;;;;;5042847;28;20400;-68
2023/11/04 03:48:45;;;;;;;1999.90;999.90;;;9.50;99.90;;;;;;5034242;28;20057;-69
2023/11/04 03:51:11;;;;;;;1999.90;999.90;;;9.50;99.90;;;;;;5042024;28;20045;-70
2023/11/04 03:53:37;;;;;;;1999.90;999.90;;;9.60;99.90;;;;;;5054490;28;20028;-69
2023/11/04 03:56:04;;;;;;;1999.90;999.90;;;9.60;99.90;;;;;;5052524;28;20048;-68
2023/11/04 03:58:30;;;;;;;1999.90;999.90;;;9.50;99.90;;;;;;5043763;28;20394;-68
2023/11/04 04:00:56;;;;;;;1999.90;999.90;;;9.60;99.90;;;;;;5049021;28;20111;-76
2023/11/04 04:03:22;;;;;;;1999.90;999.90;;;9.60;99.90;;;;;;5037506;28;20277;-68
2023/11/04 04:05:48;;;;;;;1999.90;999.90;;;9.50;99.90;;;;;;5046078;28;20029;-68
2023/11/04 04:08:15;;;;;;;1999.90;999.90;;;9.50;99.90;;;;;;5049116;28;20036;-68
2023/11/04 04:10:40;;;;;;;;;;;9.50;99.90;;;;;;5042949;28;20088;-68
2023/11/04 04:13:07;;;;;;;1999.90;999.90;;;9.50;99.90;;;;;;5050948;28;19945;-68
2023/11/04 04:15:33;;;;;;;1999.90;999.90;;;9.50;99.90;;;;;;5043936;28;20028;-68
2023/11/04 04:17:59;;;;;;;1999.90;999.90;;;9.50;99.90;;;;;;5055147;28;20032;-73
2023/11/04 04:20:26;;;;;;;1999.90;999.90;;;9.50;99.90;;;;;;5050503;28;20107;-69
2023/11/04 04:22:52;;;;;;;;;;;9.60;99.90;;;;;;5053604;28;20112;-68
2023/11/04 04:25:18;;;;;;;1999.90;999.90;;;9.60;99.90;;;;;;5051267;28;20284;-68
2023/11/04 04:27:44;;;;;;;1999.90;999.90;;;9.50;99.90;;;;;;5034031;28;20048;-68
2023/11/04 04:30:10;;;;;;;1999.90;999.90;;;9.50;99.90;;;;;;5049852;28;20033;-73
2023/11/04 04:32:35;;;;;;;1999.90;999.90;;;9.50;99.90;;;;;;5046480;28;20388;-68
2023/11/04 04:35:01;;;;;;;1999.90;999.90;;;9.50;99.90;;;;;;5052639;28;20024;-77
2023/11/04 04:37:28;;;;;;;1999.90;999.90;;;9.50;99.90;;;;;;5040932;28;20109;-68
2023/11/04 04:39:54;;;;;;;1999.90;999.90;;;9.50;99.90;;;;;;5054758;28;20044;-68
2023/11/04 04:42:19;;;;;;;1999.90;999.90;;;9.50;99.90;;;;;;5049754;28;20113;-68
2023/11/04 04:44:45;;;;;;;1999.90;999.90;;;9.50;99.90;;;;;;5043174;28;20036;-69
2023/11/04 04:47:11;;;;;;;1999.90;999.90;;;9.60;99.90;;;;;;5059434;28;20077;-68
2023/11/04 04:49:37;;;;;;;1999.90;999.90;;;9.60;99.90;;;;;;5054854;28;20370;-68
2023/11/04 04:52:02;;;;;;;1999.90;999.90;;;9.60;99.90;;;;;;5049724;28;20079;-68
2023/11/04 04:54:28;;;;;;;1999.90;999.90;;;9.60;99.90;;;;;;5065286;28;20033;-69
2023/11/04 04:56:54;;;;;;;1999.90;999.90;;;9.60;99.90;;;;;;5054299;28;20029;-68
2023/11/04 04:59:20;;;;;;;1999.90;999.90;;;9.60;99.90;;;;;;5053873;28;20063;-69
2023/11/04 05:01:46;;;;;;;1999.90;999.90;;;9.60;99.90;;;;;;5048433;28;20081;-76
2023/11/04 05:04:13;;;;;;;1999.90;999.90;;;9.60;99.90;;;;;;5051836;28;20108;-68
2023/11/04 05:06:39;;;;;;;1999.90;999.90;;;9.60;99.90;;;;;;5057172;28;20033;-69
2023/11/04 05:09:04;;;;;;;1999.90;999.90;;;9.60;99.90;;;;;;5054205;28;20082;-69
2023/11/04 05:11:31;;;;;;;1999.90;999.90;;;9.60;99.90;;;;;;5055528;28;20025;-69
2023/11/04 05:13:56;;;;;;;1999.90;999.90;;;9.60;99.90;;;;;;5045726;28;20426;-68
2023/11/04 05:16:22;;;;;;;1999.90;999.90;;;9.60;99.90;;;;;;5054417;28;20116;-68
2023/11/04 05:18:49;;;;;;;1999.90;999.90;;;9.60;99.90;;;;;;5053541;28;20033;-75
2023/11/04 05:21:16;;;;;;;1999.90;999.90;;;9.70;99.90;;;;;;5054132;28;20222;-68
2023/11/04 05:23:43;;;;;;;1999.90;999.90;;;9.60;99.90;;;;;;5050298;28;20115;-69
2023/11/04 05:26:09;;;;;;;;;;;9.60;99.90;;;;;;5042528;28;20033;-68
2023/11/04 05:28:35;;;;;;;1999.90;999.90;;;9.70;99.90;;;;;;5037135;28;20253;-68
2023/11/04 05:31:01;;;;;;;1999.90;999.90;;;9.70;99.90;;;;;;5065427;28;20115;-68
2023/11/04 05:33:26;;;;;;;1999.90;999.90;;;9.70;99.90;;;;;;5043895;28;20365;-68
2023/11/04 05:35:53;;;;;;;1999.90;999.90;;;9.60;99.90;;;;;;5050728;28;20041;-73
2023/11/04 05:38:19;;;;;;;1999.90;999.90;;;9.60;99.90;;;;;;5052936;28;20332;-68
2023/11/04 05:40:45;;;;;;;1999.90;999.90;;;9.60;99.90;;;;;;5052370;28;20029;-68
2023/11/04 05:43:11;;;;;;;1999.90;999.90;;;9.70;99.90;;;;;;5053240;28;20033;-68
2023/11/04 05:45:37;;;;;;;1999.90;999.90;;;9.60;99.90;;;;;;5052454;28;20033;-69
2023/11/04 05:48:04;;;;;;;1999.90;999.90;;;9.70;99.90;;;;;;5049989;28;20025;-68
2023/11/04 05:50:30;;;;;;;;;;;9.60;99.90;;;;;;5048081;28;20498;-69
2023/11/04 05:52:55;;;;;;;1999.90;999.90;;;9.70;99.90;;;;;;5052116;28;19912;-68
2023/11/04 05:55:23;;;;;;;1999.90;999.90;;;9.60;99.90;;;;;;5053155;28;20032;-69
2023/11/04 05:57:49;;;;;;;1999.90;999.90;;;9.60;99.90;;;;;;5048443;28;20036;-68
2023/11/04 06:00:15;;;;;;;1999.90;999.90;;;9.60;99.90;;;;;;5043131;28;20047;-68
2023/11/04 06:02:41;;;;;;;1999.90;999.90;;;9.50;99.90;;;;;;5034167;28;20036;-68
2023/11/04 06:05:08;;;;;;;1999.90;999.90;;;9.60;99.90;;;;;;5041707;28;20033;-70
2023/11/04 06:07:34;;;;;;;1999.90;999.90;;;9.60;99.90;;;;;;5037578;28;20483;-68
2023/11/04 06:10:01;;;;;;;1999.90;999.90;;;9.50;99.90;;;;;;5042999;28;20511;-69
2023/11/04 06:12:27;;;;;;;1999.90;999.90;;;9.50;99.90;;;;;;5042921;28;20029;-69
2023/11/04 06:14:52;;;;;;;1999.90;999.90;;;9.50;99.90;;;;;;5047347;28;20033;-68
2023/11/04 06:17:18;;;;;;;1999.90;999.90;;;9.40;99.90;;;;;;5045733;28;20029;-68
2023/11/04 06:19:44;;;;;;;1999.90;999.90;;;9.40;99.90;;;;;;5036169;28;20037;-69
2023/11/04 06:22:11;;;;;;;1999.90;999.90;;;9.30;99.90;;;;;;5038521;28;20033;-68
2023/11/04 06:24:39;;;;;;;1999.90;999.90;;;9.30;99.90;;;;;;5035931;28;20032;-68
2023/11/04 06:27:06;;;;;;;1999.90;999.90;;;9.40;99.90;;;;;;5040179;28;20409;-68
2023/11/04 06:29:31;;;;;;;1999.90;999.90;;;9.40;99.90;;;;;;5036800;28;20032;-69
2023/11/04 06:31:57;;;;;;;1999.90;999.90;;;9.40;99.90;;;;;;5031976;28;20026;-68
2023/11/04 06:34:23;;;;;;;1999.90;999.90;;;9.40;99.90;;;;;;5033770;28;20060;-68
2023/11/04 06:36:51;;;;;;;1999.90;999.90;;;9.40;99.90;;;;;;5035303;28;20285;-67
2023/11/04 06:39:17;;;;;;;1999.90;999.90;;;9.50;99.90;;;;;;5033404;28;20140;-68
2023/11/04 06:41:43;;;;;;;1999.90;999.90;;;9.40;99.90;;;;;;5039215;28;20080;-68
2023/11/04 06:44:10;;;;;;;1999.90;999.90;;;9.50;99.90;;;;;;5035329;28;20328;-68
2023/11/04 06:46:39;;;;;;;1999.90;999.90;;;9.50;99.90;;;;;;5033699;28;20285;-68
2023/11/04 06:49:05;;;;;;;1999.90;999.90;;;9.50;99.90;;;;;;5039675;28;20413;-68
2023/11/04 06:51:31;;;;;;;1999.90;999.90;;;9.40;99.90;;;;;;5037475;28;20041;-67
2023/11/04 06:53:57;;;;;;;1999.90;999.90;;;9.40;99.90;;;;;;5042458;28;20442;-68
2023/11/04 06:56:26;;;;;;;1999.90;999.90;;;9.40;99.90;;;;;;5039296;28;20495;-68
2023/11/04 06:58:53;;;;;;;1999.90;999.90;;;9.40;99.90;;;;;;5035172;28;20416;-68
2023/11/04 07:01:22;;;;;;;1999.90;999.90;;;9.40;99.90;;;;;;5037232;28;20116;-68
2023/11/04 07:03:47;;;;;;;1999.90;999.90;;;9.40;99.90;;;;;;5040820;28;20033;-68
2023/11/04 07:06:14;;;;;;;1999.90;999.90;;;9.40;99.90;;;;;;5032673;28;20035;-68
2023/11/04 07:08:42;;;;;;;1999.90;999.90;;;9.50;99.90;;;;;;5037509;28;20104;-68
2023/11/04 07:11:11;;;;;;;1999.90;999.90;;;9.50;99.90;;;;;;5040183;28;20464;-68
2023/11/04 07:13:38;;;;;;;1999.90;999.90;;;9.50;99.90;;;;;;5047158;28;20056;-68
2023/11/04 07:16:04;;;;;;;1999.90;999.90;;;9.50;99.90;;;;;;5035409;28;20033;-68
2023/11/04 07:18:30;;;;;;;1999.90;999.90;;;9.50;99.90;;;;;;5046102;28;20095;-68
2023/11/04 07:20:59;;;;;;;1999.90;999.90;;;9.60;99.90;;;;;;5036586;28;20026;-68
2023/11/04 07:23:26;;;;;;;1999.90;999.90;;;9.60;99.90;;;;;;5039759;28;20025;-68
2023/11/04 07:25:53;;;;;;;1999.90;999.90;;;9.60;99.90;;;;;;5038152;28;20450;-68
2023/11/04 07:28:20;;;;;;;1999.90;999.90;;;9.60;99.90;;;;;;5044159;28;20052;-80
2023/11/04 07:30:46;;;;;;;1999.90;999.90;;;9.60;99.90;;;;;;5050604;28;20060;-68
2023/11/04 07:33:11;;;;;;;1999.90;999.90;;;9.60;99.90;;;;;;5050628;28;20045;-75
2023/11/04 07:35:38;;;;;;;1999.90;999.90;;;9.60;99.90;;;;;;5045746;28;20029;-68
2023/11/04 07:38:04;;;;;;;1999.90;999.90;;;9.70;99.90;;;;;;5049709;28;20089;-68
2023/11/04 07:40:31;;;;;;;1999.90;999.90;;;9.70;99.90;;;;;;5052837;28;20044;-68
2023/11/04 07:42:56;;;;;;;1999.90;999.90;;;9.70;99.90;;;;;;5039811;28;20014;-68
2023/11/04 07:45:22;;;;;;;1999.90;999.90;;;9.70;99.90;;;;;;5061710;28;20017;-68
2023/11/04 07:47:48;;;;;;;1999.90;999.90;;;9.70;99.90;;;;;;5046133;28;20029;-68
2023/11/04 07:50:14;;;;;;;1999.90;999.90;;;9.70;99.90;;;;;;5042467;28;20642;-69
2023/11/04 07:52:41;;;;;;;1999.90;999.90;;;9.80;99.90;;;;;;5042026;28;20368;-68
2023/11/04 07:55:08;;;;;;;1999.90;999.90;;;9.80;99.90;;;;;;5055577;28;20107;-75
2023/11/04 07:57:38;;;;;;;1999.90;999.90;;;9.80;99.90;;;;;;5046833;28;20029;-68
2023/11/04 08:00:07;;;;;;;1999.90;999.90;;;9.80;99.90;;;;;;5058833;28;20024;-68
2023/11/04 08:02:36;;;;;;;1999.90;999.90;;;9.80;99.90;;;;;;5040646;28;20025;-69
2023/11/04 08:05:04;;;;;;;1999.90;999.90;;;9.80;99.90;;;;;;5063683;28;20054;-68
2023/11/04 08:07:30;;;;;;;1999.90;999.90;;;9.80;99.90;;;;;;5051095;28;20304;-68
2023/11/04 08:09:57;;;;;;;1999.90;999.90;;;9.80;99.90;;;;;;5052621;28;20128;-67
2023/11/04 08:12:23;;;;;;;1999.90;999.90;;;9.80;99.90;;;;;;5044550;28;20029;-68
2023/11/04 08:14:49;;;;;;;1999.90;999.90;;;9.90;99.90;;;;;;5062822;28;20031;-67
2023/11/04 08:17:15;;;;;;;1999.90;999.90;;;9.90;99.90;;;;;;5057381;28;20020;-68
2023/11/04 08:19:41;;;;;;;1999.90;999.90;;;9.90;99.90;;;;;;5055602;28;20025;-69
2023/11/04 08:22:09;;;;;;;1999.90;999.90;;;9.90;99.90;;;;;;5049250;28;20705;-68
2023/11/04 08:24:36;;;;;;;1999.90;999.90;;;9.90;99.90;;;;;;5045691;28;20099;-68
2023/11/04 08:27:02;;;;;;;1999.90;999.90;;;10.00;99.90;;;;;;5065231;28;20107;-68
2023/11/04 08:29:30;;;;;;;1999.90;999.90;;;10.00;99.90;;;;;;5066670;28;20033;-68
2023/11/04 08:31:57;;;;;;;1999.90;999.90;;;10.10;99.90;;;;;;5053956;28;20028;-68
2023/11/04 08:34:23;;;;;;;1999.90;999.90;;;10.10;99.90;;;;;;5044377;28;20022;-68
2023/11/04 08:36:49;;;;;;;1999.90;999.90;;;10.10;99.90;;;;;;5050292;28;20478;-68
2023/11/04 08:39:15;;;;;;;1999.90;999.90;;;10.10;99.90;;;;;;5040937;28;20111;-68
2023/11/04 08:41:41;;;;;;;1999.90;999.90;;;10.20;99.90;;;;;;5051511;28;20388;-68
2023/11/04 08:44:07;;;;;;;1999.90;999.90;;;10.20;99.90;;;;;;5047420;28;20096;-68
2023/11/04 08:46:33;;;;;;;1999.90;999.90;;;10.30;99.90;;;;;;5051967;28;20111;-68
2023/11/04 08:48:59;;;;;;;1999.90;999.90;;;10.30;99.90;;;;;;5048866;28;20104;-68
2023/11/04 08:51:25;;;;;;;1999.90;999.90;;;10.30;99.90;;;;;;5045880;28;20496;-68
2023/11/04 08:53:51;;;;;;;1999.90;999.90;;;10.30;99.90;;;;;;5036108;28;20094;-67
2023/11/04 08:56:17;;;;;;;1999.90;999.90;;;10.20;99.90;;;;;;5034369;28;20091;-69
2023/11/04 08:58:43;;;;;;;1999.90;999.90;;;10.20;99.90;;;;;;5036989;28;20045;-68
2023/11/04 09:01:10;;;;;;;1999.90;999.90;;;10.30;99.90;;;;;;5048224;28;20450;-68
2023/11/04 09:03:38;;;;;;;1999.90;999.90;;;10.30;99.90;;;;;;5050310;28;20100;-68
2023/11/04 09:06:05;;;;;;;1999.90;999.90;;;10.30;99.90;;;;;;5049844;28;20037;-68
2023/11/04 09:08:32;;;;;;;1999.90;999.90;;;10.30;99.90;;;;;;5051993;28;20020;-68
2023/11/04 09:10:58;;;;;;;1999.90;999.90;;;10.30;99.90;;;;;;5048453;28;20029;-77
2023/11/04 09:13:24;;;;;;;1999.90;999.90;;;10.40;99.90;;;;;;5045801;28;20180;-67
2023/11/04 09:15:50;;;;;;;1999.90;999.90;;;10.30;99.90;;;;;;5050638;28;20098;-76
2023/11/04 09:18:16;;;;;;;1999.90;999.90;;;10.40;99.90;;;;;;5047213;28;20309;-68
2023/11/04 09:20:43;;;;;;;1999.90;999.90;;;10.40;99.90;;;;;;5048619;28;20082;-68
2023/11/04 09:23:10;;;;;;;1999.90;999.90;;;10.50;99.90;;;;;;5055129;28;20043;-67
2023/11/04 09:25:36;;;;;;;1999.90;999.90;;;10.50;99.90;;;;;;5039646;28;20036;-68
2023/11/04 09:28:01;;;;;;;1999.90;999.90;;;10.50;99.90;;;;;;5048024;28;20025;-69
2023/11/04 09:30:27;;;;;;;1999.90;999.90;;;10.50;99.90;;;;;;5039530;28;20055;-68
2023/11/04 09:32:53;;;;;;;1999.90;999.90;;;10.60;99.90;;;;;;5047869;28;20045;-68
2023/11/04 09:35:19;;;;;;;1999.90;999.90;;;10.60;99.90;;;;;;5046328;28;20040;-68
2023/11/04 09:37:45;;;;;;;1999.90;999.90;;;10.60;99.90;;;;;;5051852;28;20036;-68
2023/11/04 09:40:12;;;;;;;1999.90;999.90;;;10.70;99.90;;;;;;5048268;28;20412;-68
2023/11/04 09:42:37;;;;;;;;;;;10.80;99.90;;;;;;5048355;28;20339;-68
2023/11/04 09:45:04;;;;;;;1999.90;999.90;;;10.80;99.90;;;;;;5049305;28;19992;-68
2023/11/04 09:47:31;;;;;;;1999.90;999.90;;;10.90;99.90;;;;;;5048206;28;20120;-67
2023/11/04 09:49:57;;;;;;;1999.90;999.90;;;11.00;99.90;;;;;;5050605;28;20112;-77
2023/11/04 09:52:24;;;;;;;1999.90;999.90;;;11.00;99.90;;;;;;5055237;28;20021;-68
2023/11/04 09:54:50;;;;;;;;;;;11.00;99.90;;;;;;5046789;28;20435;-76
2023/11/04 09:57:16;;;;;;;1999.90;999.90;;;11.00;99.90;;;;;;5047868;28;20069;-68
2023/11/04 09:59:42;;;;;;;1999.90;999.90;;;11.00;99.90;;;;;;5045836;28;20041;-68
2023/11/04 10:02:12;;;;;;;1999.90;999.90;;;11.00;99.90;;;;;;5059904;28;20033;-68
2023/11/04 10:04:38;;;;;;;1999.90;999.90;;;11.00;99.90;;;;;;5058004;28;20483;-68
2023/11/04 10:07:06;;;;;;;1999.90;999.90;;;11.10;99.90;;;;;;5045310;28;20037;-68
2023/11/04 10:09:32;;;;;;;1999.90;999.90;;;11.20;99.90;;;;;;5046614;28;20021;-68
2023/11/04 10:11:58;;;;;;;1999.90;999.90;;;11.20;99.90;;;;;;5055007;28;20078;-68
2023/11/04 10:14:25;;;;;;;1999.90;999.90;;;11.20;99.90;;;;;;5041734;28;20029;-68
2023/11/04 10:16:51;;;;;;;1999.90;999.90;;;11.20;99.90;;;;;;5057897;28;20400;-68
2023/11/04 10:19:17;;;;;;;1999.90;999.90;;;11.20;99.90;;;;;;5038970;28;20040;-77
2023/11/04 10:21:44;;;;;;;1999.90;999.90;;;11.20;99.90;;;;;;5042922;28;20331;-76
2023/11/04 10:24:11;;;;;;;1999.90;999.90;;;11.30;99.90;;;;;;5037704;28;20211;-67
2023/11/04 10:26:37;;;;;;;1999.90;999.90;;;11.30;99.90;;;;;;5041946;28;20029;-67
2023/11/04 10:29:08;;;;;;;1999.90;999.90;;;11.30;99.90;;;;;;5033502;28;20030;-67
2023/11/04 10:31:35;;;;;;;1999.90;999.90;;;11.30;99.90;;;;;;5038997;28;20033;-68
2023/11/04 10:34:04;;;;;;;1999.90;999.90;;;11.30;99.90;;;;;;5033176;28;20025;-67
2023/11/04 10:36:32;;;;;;;1999.90;999.90;;;11.30;99.90;;;;;;5035137;28;20025;-68
2023/11/04 10:39:03;;;;;;;1999.90;999.90;;;11.40;99.90;;;;;;5044525;28;20021;-68
2023/11/04 10:41:42;;;;;;;1999.90;999.90;;;11.40;99.90;;;;;;5048774;28;20374;-67
2023/11/04 10:44:15;;;;;;;1999.90;999.90;;;11.40;99.90;;;;;;5044496;28;20439;-67
2023/11/04 10:46:55;;;;;;;1999.90;999.90;;;11.40;99.90;;;;;;5035749;28;20095;-67
2023/11/04 10:49:57;;;;;;;1999.90;999.90;;;11.40;99.90;;;;;;5051768;28;20032;-68
2023/11/04 10:52:27;;;;;;;1999.90;999.90;;;11.40;99.90;;;;;;5047704;28;20053;-78
2023/11/04 10:55:06;;;;;;;1999.90;999.90;;;11.40;99.90;;;;;;5053947;28;20056;-68
2023/11/04 10:57:42;;;;;;;1999.90;999.90;;;11.30;99.90;;;;;;5049832;28;20108;-68
2023/11/04 11:00:14;;;;;;;1999.90;999.90;;;11.30;99.90;;;;;;5049930;28;20327;-68
2023/11/04 11:02:44;;;;;;;1999.90;999.90;;;11.20;99.90;;;;;;5046976;28;20328;-67
2023/11/04 11:05:12;;;;;;;1999.90;999.90;;;11.20;99.90;;;;;;5056935;28;20021;-74
2023/11/04 11:07:43;;;;;;;1999.90;999.90;;;11.20;99.90;;;;;;5048566;28;20036;-67
2023/11/04 11:10:19;;;;;;;1999.90;999.90;;;11.10;99.90;;;;;;5046043;28;20025;-75
2023/11/04 11:13:21;;;;;;;1999.90;999.90;;;11.20;99.90;;;;;;5047907;28;20027;-67
2023/11/04 11:15:48;;;;;;;1999.90;999.90;;;11.10;99.90;;;;;;5041869;28;20051;-68
2023/11/04 11:18:25;;;;;;;1999.90;999.90;;;11.10;99.90;;;;;;5039081;28;20029;-67
2023/11/04 11:20:51;;;;;;;1999.90;999.90;;;11.10;99.90;;;;;;5049286;28;20112;-67
2023/11/04 11:23:28;;;;;;;1999.90;999.90;;;11.10;99.90;;;;;;5065180;28;20478;-68
2023/11/04 11:26:05;;;;;;;1999.90;999.90;;;11.00;99.90;;;;;;5052894;28;20113;-69
2023/11/04 11:28:40;;;;;;;1999.90;999.90;;;11.00;99.90;;;;;;5054113;28;20082;-67
2023/11/04 11:31:12;;;;;;;1999.90;999.90;;;11.00;99.90;;;;;;5047204;28;20074;-67
2023/11/04 11:33:42;;;;;;;1999.90;999.90;;;11.10;99.90;;;;;;5052118;28;20101;-67
2023/11/04 11:36:10;;;;;;;1999.90;999.90;;;11.00;99.90;;;;;;5053237;28;20029;-69
2023/11/04 11:38:43;;;;;;;1999.90;999.90;;;11.00;99.90;;;;;;5044805;28;20028;-77
2023/11/04 11:41:11;;;;;;;1999.90;999.90;;;11.00;99.90;;;;;;5053133;28;20049;-68
2023/11/04 11:43:37;;;;;;;1999.90;999.90;;;10.90;99.90;;;;;;5057705;28;20383;-75
2023/11/04 11:46:05;;;;;;;1999.90;999.90;;;10.90;99.90;;;;;;5051699;28;20028;-68
2023/11/04 11:48:37;;;;;;;1999.90;999.90;;;10.90;99.90;;;;;;5049230;28;20420;-68
2023/11/04 11:51:12;;;;;;;1999.90;999.90;;;10.90;99.90;;;;;;5043980;28;20095;-67
2023/11/04 11:53:42;;;;;;;1999.90;999.90;;;10.90;99.90;;;;;;5052745;28;20057;-68
2023/11/04 11:56:08;;;;;;;1999.90;999.90;;;10.90;99.90;;;;;;5050110;28;20025;-69
2023/11/04 11:58:34;;;;;;;1999.90;999.90;;;10.90;99.90;;;;;;5045693;28;20025;-67
2023/11/04 12:01:05;;;;;;;1999.90;999.90;;;10.90;99.90;;;;;;5042025;28;20034;-77
2023/11/04 12:03:33;;;;;;;1999.90;999.90;;;10.80;99.90;;;;;;5035754;28;20068;-67
2023/11/04 12:05:59;;;;;;;1999.90;999.90;;;10.80;99.90;;;;;;5034513;28;20041;-67
2023/11/04 12:08:25;;;;;;;1999.90;999.90;;;10.70;99.90;;;;;;5039946;28;20380;-68